Corumbiara, Brazil
Current Conditions -  °F | °C
As of 7:00 PM on Saturday 20 Dec 2014 (Local Time) from SLTR Reporting Station
Broken Clouds Broken Clouds  
Wind Chill: 79°   Ceiling: 20000
Heat Index: 83°   Visibility: 6mi
Dew Point: 77°   Wind: 7mph
Humidity: 94%   Direction: 310°NW
Pressure: 29.62"   Gusts: NA
Location:  12.96°S, 60.89°W
Report Text: SLTR 202300Z 31006KT 9999 FEW015 FEW020CB BKN200 26/25 Q1003
Loading
Personal Weather Stations






























Interactive Weather Map New forecast layout! Learn more

10-Day Weather Forecast

Advertisements
Track Severe Weather on mobile